sensor_id;sensor_type;location;lat;lon;timestamp;P1;durP1;ratioP1;P2;durP2;ratioP2
20896;SDS011;10608;42.600;23.398;2024-02-26T00:00:09;29.60;;;27.40;;
20896;SDS011;10608;42.600;23.398;2024-02-26T00:02:36;30.10;;;28.07;;
20896;SDS011;10608;42.600;23.398;2024-02-26T00:05:08;32.73;;;30.50;;
20896;SDS011;10608;42.600;23.398;2024-02-26T00:07:33;38.33;;;35.93;;
20896;SDS011;10608;42.600;23.398;2024-02-26T00:09:59;43.90;;;41.30;;
20896;SDS011;10608;42.600;23.398;2024-02-26T00:12:24;44.53;;;41.63;;
20896;SDS011;10608;42.600;23.398;2024-02-26T00:14:50;44.53;;;41.90;;
20896;SDS011;10608;42.600;23.398;2024-02-26T00:17:15;44.87;;;41.97;;
20896;SDS011;10608;42.600;23.398;2024-02-26T00:19:41;40.50;;;37.70;;
20896;SDS011;10608;42.600;23.398;2024-02-26T00:22:06;41.03;;;38.47;;
20896;SDS011;10608;42.600;23.398;2024-02-26T00:24:32;42.23;;;39.57;;
20896;SDS011;10608;42.600;23.398;2024-02-26T00:26:58;37.57;;;35.13;;
20896;SDS011;10608;42.600;23.398;2024-02-26T00:29:24;38.03;;;35.13;;
20896;SDS011;10608;42.600;23.398;2024-02-26T00:31:50;34.80;;;32.47;;
20896;SDS011;10608;42.600;23.398;2024-02-26T00:34:16;32.27;;;30.30;;
20896;SDS011;10608;42.600;23.398;2024-02-26T00:36:41;34.20;;;31.50;;
20896;SDS011;10608;42.600;23.398;2024-02-26T00:39:07;35.30;;;32.67;;
20896;SDS011;10608;42.600;23.398;2024-02-26T00:41:32;40.10;;;37.53;;
20896;SDS011;10608;42.600;23.398;2024-02-26T00:43:57;49.97;;;46.97;;
20896;SDS011;10608;42.600;23.398;2024-02-26T00:46:23;51.37;;;48.23;;
20896;SDS011;10608;42.600;23.398;2024-02-26T00:48:48;58.33;;;54.83;;
20896;SDS011;10608;42.600;23.398;2024-02-26T00:51:14;59.40;;;55.50;;
20896;SDS011;10608;42.600;23.398;2024-02-26T00:53:40;55.33;;;52.30;;
20896;SDS011;10608;42.600;23.398;2024-02-26T00:56:05;49.77;;;46.70;;
20896;SDS011;10608;42.600;23.398;2024-02-26T00:58:31;43.00;;;40.40;;
20896;SDS011;10608;42.600;23.398;2024-02-26T01:00:57;38.23;;;35.60;;
20896;SDS011;10608;42.600;23.398;2024-02-26T01:03:23;32.57;;;29.70;;
20896;SDS011;10608;42.600;23.398;2024-02-26T01:05:48;37.13;;;34.70;;
20896;SDS011;10608;42.600;23.398;2024-02-26T01:08:14;35.63;;;33.23;;
20896;SDS011;10608;42.600;23.398;2024-02-26T01:10:39;39.97;;;37.37;;
20896;SDS011;10608;42.600;23.398;2024-02-26T01:13:04;41.50;;;38.80;;
20896;SDS011;10608;42.600;23.398;2024-02-26T01:15:30;43.33;;;40.43;;
20896;SDS011;10608;42.600;23.398;2024-02-26T01:17:55;42.40;;;39.60;;
20896;SDS011;10608;42.600;23.398;2024-02-26T01:20:21;42.10;;;39.67;;
20896;SDS011;10608;42.600;23.398;2024-02-26T01:22:46;44.97;;;41.97;;
20896;SDS011;10608;42.600;23.398;2024-02-26T01:25:12;40.93;;;38.33;;
20896;SDS011;10608;42.600;23.398;2024-02-26T01:27:38;38.83;;;36.33;;
20896;SDS011;10608;42.600;23.398;2024-02-26T01:30:04;42.50;;;39.67;;
20896;SDS011;10608;42.600;23.398;2024-02-26T01:32:31;40.53;;;38.07;;
20896;SDS011;10608;42.600;23.398;2024-02-26T01:34:56;41.93;;;39.43;;
20896;SDS011;10608;42.600;23.398;2024-02-26T01:37:22;45.60;;;42.80;;
20896;SDS011;10608;42.600;23.398;2024-02-26T01:39:48;47.47;;;44.27;;
20896;SDS011;10608;42.600;23.398;2024-02-26T01:42:13;47.27;;;44.30;;
20896;SDS011;10608;42.600;23.398;2024-02-26T01:44:38;43.47;;;40.73;;
20896;SDS011;10608;42.600;23.398;2024-02-26T01:47:04;48.50;;;45.53;;
20896;SDS011;10608;42.600;23.398;2024-02-26T01:49:33;45.30;;;42.30;;
20896;SDS011;10608;42.600;23.398;2024-02-26T01:52:00;37.13;;;34.43;;
20896;SDS011;10608;42.600;23.398;2024-02-26T01:54:27;34.73;;;31.63;;
20896;SDS011;10608;42.600;23.398;2024-02-26T01:56:52;35.13;;;32.73;;
20896;SDS011;10608;42.600;23.398;2024-02-26T01:59:19;38.17;;;35.33;;
20896;SDS011;10608;42.600;23.398;2024-02-26T02:01:45;36.03;;;33.37;;
20896;SDS011;10608;42.600;23.398;2024-02-26T02:04:17;37.93;;;35.10;;
20896;SDS011;10608;42.600;23.398;2024-02-26T02:06:43;38.63;;;35.47;;
20896;SDS011;10608;42.600;23.398;2024-02-26T02:09:11;40.73;;;37.57;;
20896;SDS011;10608;42.600;23.398;2024-02-26T02:11:36;42.43;;;39.53;;
20896;SDS011;10608;42.600;23.398;2024-02-26T02:14:03;42.37;;;39.20;;
20896;SDS011;10608;42.600;23.398;2024-02-26T02:16:28;42.93;;;39.77;;
20896;SDS011;10608;42.600;23.398;2024-02-26T02:18:54;39.67;;;36.70;;
20896;SDS011;10608;42.600;23.398;2024-02-26T02:21:19;41.60;;;38.23;;
20896;SDS011;10608;42.600;23.398;2024-02-26T02:23:45;35.67;;;32.93;;
20896;SDS011;10608;42.600;23.398;2024-02-26T02:26:12;35.67;;;32.93;;
20896;SDS011;10608;42.600;23.398;2024-02-26T02:28:38;35.83;;;32.70;;
20896;SDS011;10608;42.600;23.398;2024-02-26T02:31:05;38.20;;;35.30;;
20896;SDS011;10608;42.600;23.398;2024-02-26T02:33:30;47.47;;;43.93;;
20896;SDS011;10608;42.600;23.398;2024-02-26T02:35:56;51.93;;;48.77;;
20896;SDS011;10608;42.600;23.398;2024-02-26T02:38:23;53.23;;;49.63;;
20896;SDS011;10608;42.600;23.398;2024-02-26T02:40:50;56.73;;;53.13;;
20896;SDS011;10608;42.600;23.398;2024-02-26T02:43:16;50.37;;;47.30;;
20896;SDS011;10608;42.600;23.398;2024-02-26T02:45:41;48.70;;;45.60;;
20896;SDS011;10608;42.600;23.398;2024-02-26T02:48:07;52.23;;;48.70;;
20896;SDS011;10608;42.600;23.398;2024-02-26T02:50:32;54.37;;;51.07;;
20896;SDS011;10608;42.600;23.398;2024-02-26T02:52:58;53.37;;;50.30;;
20896;SDS011;10608;42.600;23.398;2024-02-26T02:55:23;55.27;;;51.63;;
20896;SDS011;10608;42.600;23.398;2024-02-26T02:57:49;52.73;;;49.43;;
20896;SDS011;10608;42.600;23.398;2024-02-26T03:00:14;56.60;;;52.97;;
20896;SDS011;10608;42.600;23.398;2024-02-26T03:02:40;60.20;;;56.20;;
20896;SDS011;10608;42.600;23.398;2024-02-26T03:05:05;62.13;;;58.37;;
20896;SDS011;10608;42.600;23.398;2024-02-26T03:07:31;63.87;;;59.97;;
20896;SDS011;10608;42.600;23.398;2024-02-26T03:09:57;74.40;;;70.10;;
20896;SDS011;10608;42.600;23.398;2024-02-26T03:12:22;76.70;;;71.87;;
20896;SDS011;10608;42.600;23.398;2024-02-26T03:14:48;72.50;;;68.47;;
20896;SDS011;10608;42.600;23.398;2024-02-26T03:17:13;64.43;;;60.70;;
20896;SDS011;10608;42.600;23.398;2024-02-26T03:19:39;55.27;;;51.73;;
20896;SDS011;10608;42.600;23.398;2024-02-26T03:22:04;51.80;;;48.43;;
20896;SDS011;10608;42.600;23.398;2024-02-26T03:24:30;53.30;;;49.93;;
20896;SDS011;10608;42.600;23.398;2024-02-26T03:26:55;48.90;;;45.80;;
20896;SDS011;10608;42.600;23.398;2024-02-26T03:29:21;52.97;;;49.40;;
20896;SDS011;10608;42.600;23.398;2024-02-26T03:31:46;53.30;;;49.33;;
20896;SDS011;10608;42.600;23.398;2024-02-26T03:34:12;57.57;;;53.87;;
20896;SDS011;10608;42.600;23.398;2024-02-26T03:36:40;59.90;;;56.27;;
20896;SDS011;10608;42.600;23.398;2024-02-26T03:39:07;57.97;;;54.27;;
20896;SDS011;10608;42.600;23.398;2024-02-26T03:41:35;59.70;;;56.03;;
20896;SDS011;10608;42.600;23.398;2024-02-26T03:44:01;58.47;;;54.93;;
20896;SDS011;10608;42.600;23.398;2024-02-26T03:46:26;51.53;;;48.07;;
20896;SDS011;10608;42.600;23.398;2024-02-26T03:48:52;56.97;;;53.30;;
20896;SDS011;10608;42.600;23.398;2024-02-26T03:51:18;53.80;;;50.60;;
20896;SDS011;10608;42.600;23.398;2024-02-26T03:53:43;58.57;;;54.87;;
20896;SDS011;10608;42.600;23.398;2024-02-26T03:56:09;60.33;;;56.80;;
20896;SDS011;10608;42.600;23.398;2024-02-26T03:58:36;60.40;;;56.70;;
20896;SDS011;10608;42.600;23.398;2024-02-26T04:01:01;58.00;;;54.70;;
20896;SDS011;10608;42.600;23.398;2024-02-26T04:03:27;53.63;;;50.20;;
20896;SDS011;10608;42.600;23.398;2024-02-26T04:05:52;52.47;;;49.23;;
20896;SDS011;10608;42.600;23.398;2024-02-26T04:08:18;53.83;;;50.47;;
20896;SDS011;10608;42.600;23.398;2024-02-26T04:10:43;52.53;;;49.17;;
20896;SDS011;10608;42.600;23.398;2024-02-26T04:13:08;50.37;;;47.20;;
20896;SDS011;10608;42.600;23.398;2024-02-26T04:15:34;51.10;;;48.00;;
20896;SDS011;10608;42.600;23.398;2024-02-26T04:17:59;48.07;;;44.53;;
20896;SDS011;10608;42.600;23.398;2024-02-26T04:20:25;46.00;;;43.17;;
20896;SDS011;10608;42.600;23.398;2024-02-26T04:22:50;52.63;;;49.73;;
20896;SDS011;10608;42.600;23.398;2024-02-26T04:25:16;60.80;;;57.60;;
20896;SDS011;10608;42.600;23.398;2024-02-26T04:27:41;60.87;;;57.07;;
20896;SDS011;10608;42.600;23.398;2024-02-26T04:30:06;56.40;;;52.63;;
20896;SDS011;10608;42.600;23.398;2024-02-26T04:32:32;52.60;;;49.23;;
20896;SDS011;10608;42.600;23.398;2024-02-26T04:34:59;48.20;;;45.00;;
20896;SDS011;10608;42.600;23.398;2024-02-26T04:37:25;41.47;;;38.57;;
20896;SDS011;10608;42.600;23.398;2024-02-26T04:39:55;44.70;;;41.57;;
20896;SDS011;10608;42.600;23.398;2024-02-26T04:42:22;53.77;;;50.60;;
20896;SDS011;10608;42.600;23.398;2024-02-26T04:44:47;54.80;;;51.27;;
20896;SDS011;10608;42.600;23.398;2024-02-26T04:47:13;48.03;;;44.73;;
20896;SDS011;10608;42.600;23.398;2024-02-26T04:49:39;47.50;;;44.23;;
20896;SDS011;10608;42.600;23.398;2024-02-26T04:52:04;46.67;;;43.67;;
20896;SDS011;10608;42.600;23.398;2024-02-26T04:54:30;42.90;;;40.10;;
20896;SDS011;10608;42.600;23.398;2024-02-26T04:56:55;51.17;;;47.77;;
20896;SDS011;10608;42.600;23.398;2024-02-26T04:59:20;51.53;;;48.33;;
20896;SDS011;10608;42.600;23.398;2024-02-26T05:01:46;54.83;;;51.13;;
20896;SDS011;10608;42.600;23.398;2024-02-26T05:04:12;53.43;;;50.10;;
20896;SDS011;10608;42.600;23.398;2024-02-26T05:06:37;56.53;;;52.20;;
20896;SDS011;10608;42.600;23.398;2024-02-26T05:09:03;55.33;;;51.47;;
20896;SDS011;10608;42.600;23.398;2024-02-26T05:11:28;53.63;;;50.07;;
20896;SDS011;10608;42.600;23.398;2024-02-26T05:13:54;55.93;;;51.67;;
20896;SDS011;10608;42.600;23.398;2024-02-26T05:16:19;53.00;;;49.37;;
20896;SDS011;10608;42.600;23.398;2024-02-26T05:18:46;53.80;;;50.03;;
20896;SDS011;10608;42.600;23.398;2024-02-26T05:21:12;57.90;;;53.70;;
20896;SDS011;10608;42.600;23.398;2024-02-26T05:23:37;54.53;;;50.93;;
20896;SDS011;10608;42.600;23.398;2024-02-26T05:26:02;63.27;;;58.53;;
20896;SDS011;10608;42.600;23.398;2024-02-26T05:28:28;57.00;;;53.60;;
20896;SDS011;10608;42.600;23.398;2024-02-26T05:30:53;59.07;;;55.23;;
20896;SDS011;10608;42.600;23.398;2024-02-26T05:33:19;62.47;;;58.33;;
20896;SDS011;10608;42.600;23.398;2024-02-26T05:35:44;55.67;;;51.90;;
20896;SDS011;10608;42.600;23.398;2024-02-26T05:38:10;53.50;;;49.67;;
20896;SDS011;10608;42.600;23.398;2024-02-26T05:40:35;53.20;;;49.90;;
20896;SDS011;10608;42.600;23.398;2024-02-26T05:43:01;46.83;;;43.63;;
20896;SDS011;10608;42.600;23.398;2024-02-26T05:45:27;49.27;;;45.77;;
20896;SDS011;10608;42.600;23.398;2024-02-26T05:47:52;53.43;;;49.83;;
20896;SDS011;10608;42.600;23.398;2024-02-26T05:50:17;53.87;;;50.53;;
20896;SDS011;10608;42.600;23.398;2024-02-26T05:52:43;58.40;;;54.80;;
20896;SDS011;10608;42.600;23.398;2024-02-26T05:55:08;53.47;;;49.73;;
20896;SDS011;10608;42.600;23.398;2024-02-26T05:57:34;50.23;;;46.67;;
20896;SDS011;10608;42.600;23.398;2024-02-26T06:00:00;47.50;;;44.33;;
20896;SDS011;10608;42.600;23.398;2024-02-26T06:02:31;45.33;;;42.03;;
20896;SDS011;10608;42.600;23.398;2024-02-26T06:04:57;45.90;;;42.90;;
20896;SDS011;10608;42.600;23.398;2024-02-26T06:07:23;54.47;;;50.67;;
20896;SDS011;10608;42.600;23.398;2024-02-26T06:09:48;56.70;;;52.90;;
20896;SDS011;10608;42.600;23.398;2024-02-26T06:12:13;52.27;;;48.83;;
20896;SDS011;10608;42.600;23.398;2024-02-26T06:14:39;48.07;;;44.53;;
20896;SDS011;10608;42.600;23.398;2024-02-26T06:17:04;46.43;;;43.43;;
20896;SDS011;10608;42.600;23.398;2024-02-26T06:19:30;52.73;;;49.17;;
20896;SDS011;10608;42.600;23.398;2024-02-26T06:21:55;65.00;;;60.93;;
20896;SDS011;10608;42.600;23.398;2024-02-26T06:24:21;65.43;;;61.27;;
20896;SDS011;10608;42.600;23.398;2024-02-26T06:26:47;66.80;;;62.77;;
20896;SDS011;10608;42.600;23.398;2024-02-26T06:29:13;70.93;;;66.63;;
20896;SDS011;10608;42.600;23.398;2024-02-26T06:31:38;83.70;;;79.03;;
20896;SDS011;10608;42.600;23.398;2024-02-26T06:34:04;62.30;;;58.53;;
20896;SDS011;10608;42.600;23.398;2024-02-26T06:36:29;57.57;;;53.80;;
20896;SDS011;10608;42.600;23.398;2024-02-26T06:38:57;51.00;;;47.70;;
20896;SDS011;10608;42.600;23.398;2024-02-26T06:41:22;59.90;;;56.33;;
20896;SDS011;10608;42.600;23.398;2024-02-26T06:43:52;61.20;;;57.10;;
20896;SDS011;10608;42.600;23.398;2024-02-26T06:46:21;66.97;;;62.37;;
20896;SDS011;10608;42.600;23.398;2024-02-26T06:48:48;58.13;;;54.37;;
20896;SDS011;10608;42.600;23.398;2024-02-26T06:51:14;53.50;;;49.83;;
20896;SDS011;10608;42.600;23.398;2024-02-26T06:53:39;57.60;;;53.43;;
20896;SDS011;10608;42.600;23.398;2024-02-26T06:56:05;57.20;;;53.50;;
20896;SDS011;10608;42.600;23.398;2024-02-26T06:58:30;63.07;;;58.87;;
20896;SDS011;10608;42.600;23.398;2024-02-26T07:00:56;58.90;;;54.53;;
20896;SDS011;10608;42.600;23.398;2024-02-26T07:03:21;59.17;;;55.37;;
20896;SDS011;10608;42.600;23.398;2024-02-26T07:05:47;81.43;;;76.83;;
20896;SDS011;10608;42.600;23.398;2024-02-26T07:08:13;51.47;;;48.23;;
20896;SDS011;10608;42.600;23.398;2024-02-26T07:10:38;50.73;;;47.33;;
20896;SDS011;10608;42.600;23.398;2024-02-26T07:13:04;55.33;;;51.90;;
20896;SDS011;10608;42.600;23.398;2024-02-26T07:15:30;56.27;;;52.57;;
20896;SDS011;10608;42.600;23.398;2024-02-26T07:17:55;65.37;;;61.50;;
20896;SDS011;10608;42.600;23.398;2024-02-26T07:20:21;63.53;;;59.93;;
20896;SDS011;10608;42.600;23.398;2024-02-26T07:22:46;55.70;;;52.20;;
20896;SDS011;10608;42.600;23.398;2024-02-26T07:25:12;46.53;;;43.07;;
20896;SDS011;10608;42.600;23.398;2024-02-26T07:27:39;51.07;;;47.87;;
20896;SDS011;10608;42.600;23.398;2024-02-26T07:30:05;53.93;;;50.80;;
20896;SDS011;10608;42.600;23.398;2024-02-26T07:32:33;52.87;;;49.60;;
20896;SDS011;10608;42.600;23.398;2024-02-26T07:34:58;52.27;;;49.10;;
20896;SDS011;10608;42.600;23.398;2024-02-26T07:37:24;48.53;;;45.57;;
20896;SDS011;10608;42.600;23.398;2024-02-26T07:39:49;38.37;;;36.00;;
20896;SDS011;10608;42.600;23.398;2024-02-26T07:42:15;40.83;;;38.30;;
20896;SDS011;10608;42.600;23.398;2024-02-26T07:44:40;31.43;;;29.13;;
20896;SDS011;10608;42.600;23.398;2024-02-26T07:47:08;32.80;;;30.70;;
20896;SDS011;10608;42.600;23.398;2024-02-26T07:49:34;34.53;;;32.03;;
20896;SDS011;10608;42.600;23.398;2024-02-26T07:51:59;32.87;;;30.90;;
20896;SDS011;10608;42.600;23.398;2024-02-26T07:54:25;26.40;;;24.60;;
20896;SDS011;10608;42.600;23.398;2024-02-26T07:56:50;29.40;;;27.37;;
20896;SDS011;10608;42.600;23.398;2024-02-26T07:59:15;33.37;;;31.30;;
20896;SDS011;10608;42.600;23.398;2024-02-26T08:01:41;28.87;;;26.50;;
20896;SDS011;10608;42.600;23.398;2024-02-26T08:04:07;24.47;;;22.63;;
20896;SDS011;10608;42.600;23.398;2024-02-26T08:06:32;31.43;;;29.33;;
20896;SDS011;10608;42.600;23.398;2024-02-26T08:08:57;30.67;;;28.47;;
20896;SDS011;10608;42.600;23.398;2024-02-26T08:11:23;28.17;;;26.27;;
20896;SDS011;10608;42.600;23.398;2024-02-26T08:13:48;28.27;;;26.03;;
20896;SDS011;10608;42.600;23.398;2024-02-26T08:16:13;28.33;;;26.23;;
20896;SDS011;10608;42.600;23.398;2024-02-26T08:18:39;23.93;;;22.40;;
20896;SDS011;10608;42.600;23.398;2024-02-26T08:21:05;23.00;;;21.60;;
20896;SDS011;10608;42.600;23.398;2024-02-26T08:23:30;25.20;;;23.50;;
20896;SDS011;10608;42.600;23.398;2024-02-26T08:25:56;24.53;;;23.07;;
20896;SDS011;10608;42.600;23.398;2024-02-26T08:28:22;31.80;;;29.37;;
20896;SDS011;10608;42.600;23.398;2024-02-26T08:30:47;30.20;;;28.23;;
20896;SDS011;10608;42.600;23.398;2024-02-26T08:33:13;22.43;;;20.77;;
20896;SDS011;10608;42.600;23.398;2024-02-26T08:35:38;25.43;;;23.80;;
20896;SDS011;10608;42.600;23.398;2024-02-26T08:38:04;22.30;;;20.70;;
20896;SDS011;10608;42.600;23.398;2024-02-26T08:40:29;20.83;;;19.40;;
20896;SDS011;10608;42.600;23.398;2024-02-26T08:42:55;26.27;;;24.27;;
20896;SDS011;10608;42.600;23.398;2024-02-26T08:45:20;23.60;;;22.03;;
20896;SDS011;10608;42.600;23.398;2024-02-26T08:47:46;23.17;;;21.33;;
20896;SDS011;10608;42.600;23.398;2024-02-26T08:50:12;29.17;;;27.27;;
20896;SDS011;10608;42.600;23.398;2024-02-26T08:52:39;29.93;;;27.97;;
20896;SDS011;10608;42.600;23.398;2024-02-26T08:55:05;26.03;;;24.43;;
20896;SDS011;10608;42.600;23.398;2024-02-26T08:57:31;20.90;;;19.50;;
20896;SDS011;10608;42.600;23.398;2024-02-26T08:59:59;21.83;;;20.43;;
20896;SDS011;10608;42.600;23.398;2024-02-26T09:02:25;24.07;;;22.30;;
20896;SDS011;10608;42.600;23.398;2024-02-26T09:04:50;25.23;;;23.63;;
20896;SDS011;10608;42.600;23.398;2024-02-26T09:07:18;22.37;;;20.97;;
20896;SDS011;10608;42.600;23.398;2024-02-26T09:09:44;27.33;;;25.63;;
20896;SDS011;10608;42.600;23.398;2024-02-26T09:12:09;21.07;;;19.47;;
20896;SDS011;10608;42.600;23.398;2024-02-26T09:14:34;20.67;;;19.33;;
20896;SDS011;10608;42.600;23.398;2024-02-26T09:17:00;23.43;;;21.90;;
20896;SDS011;10608;42.600;23.398;2024-02-26T09:19:26;25.33;;;23.53;;
20896;SDS011;10608;42.600;23.398;2024-02-26T09:21:52;19.73;;;18.37;;
20896;SDS011;10608;42.600;23.398;2024-02-26T09:24:22;19.23;;;17.73;;
20896;SDS011;10608;42.600;23.398;2024-02-26T09:26:47;22.10;;;20.60;;
20896;SDS011;10608;42.600;23.398;2024-02-26T09:29:13;16.97;;;15.97;;
20896;SDS011;10608;42.600;23.398;2024-02-26T09:31:38;18.07;;;16.67;;
20896;SDS011;10608;42.600;23.398;2024-02-26T09:34:06;21.47;;;19.50;;
20896;SDS011;10608;42.600;23.398;2024-02-26T09:36:32;19.00;;;17.70;;
20896;SDS011;10608;42.600;23.398;2024-02-26T09:38:58;19.23;;;17.70;;
20896;SDS011;10608;42.600;23.398;2024-02-26T09:41:23;19.63;;;18.17;;
20896;SDS011;10608;42.600;23.398;2024-02-26T09:43:52;22.10;;;20.10;;
20896;SDS011;10608;42.600;23.398;2024-02-26T09:46:21;29.30;;;27.50;;
20896;SDS011;10608;42.600;23.398;2024-02-26T09:48:47;19.70;;;17.97;;
20896;SDS011;10608;42.600;23.398;2024-02-26T09:51:13;18.80;;;17.60;;
20896;SDS011;10608;42.600;23.398;2024-02-26T09:53:40;27.37;;;25.60;;
20896;SDS011;10608;42.600;23.398;2024-02-26T09:56:09;19.87;;;18.67;;
20896;SDS011;10608;42.600;23.398;2024-02-26T09:58:36;19.00;;;17.63;;
20896;SDS011;10608;42.600;23.398;2024-02-26T10:01:03;18.07;;;16.80;;
20896;SDS011;10608;42.600;23.398;2024-02-26T10:03:38;24.33;;;22.83;;
20896;SDS011;10608;42.600;23.398;2024-02-26T10:06:06;22.73;;;21.27;;
20896;SDS011;10608;42.600;23.398;2024-02-26T10:08:34;26.57;;;24.77;;
20896;SDS011;10608;42.600;23.398;2024-02-26T10:11:02;25.30;;;23.50;;
20896;SDS011;10608;42.600;23.398;2024-02-26T10:13:28;22.57;;;21.07;;
20896;SDS011;10608;42.600;23.398;2024-02-26T10:15:53;20.50;;;19.17;;
20896;SDS011;10608;42.600;23.398;2024-02-26T10:18:19;20.57;;;19.00;;
20896;SDS011;10608;42.600;23.398;2024-02-26T10:21:03;20.47;;;19.20;;
20896;SDS011;10608;42.600;23.398;2024-02-26T10:23:28;23.30;;;21.63;;
20896;SDS011;10608;42.600;23.398;2024-02-26T10:25:54;20.47;;;18.83;;
20896;SDS011;10608;42.600;23.398;2024-02-26T10:28:20;17.80;;;16.70;;
20896;SDS011;10608;42.600;23.398;2024-02-26T10:30:46;18.50;;;17.13;;
20896;SDS011;10608;42.600;23.398;2024-02-26T10:33:12;18.80;;;17.60;;
20896;SDS011;10608;42.600;23.398;2024-02-26T10:35:39;21.30;;;20.10;;
20896;SDS011;10608;42.600;23.398;2024-02-26T10:38:06;19.53;;;18.33;;
20896;SDS011;10608;42.600;23.398;2024-02-26T10:40:32;34.67;;;32.67;;
20896;SDS011;10608;42.600;23.398;2024-02-26T10:42:58;25.40;;;23.97;;
20896;SDS011;10608;42.600;23.398;2024-02-26T10:45:23;20.63;;;19.17;;
20896;SDS011;10608;42.600;23.398;2024-02-26T10:47:49;19.23;;;17.93;;
20896;SDS011;10608;42.600;23.398;2024-02-26T10:50:15;15.87;;;14.87;;
20896;SDS011;10608;42.600;23.398;2024-02-26T10:52:42;16.33;;;15.13;;
20896;SDS011;10608;42.600;23.398;2024-02-26T10:55:08;21.40;;;19.90;;
20896;SDS011;10608;42.600;23.398;2024-02-26T10:57:45;16.63;;;15.50;;
20896;SDS011;10608;42.600;23.398;2024-02-26T11:00:15;18.27;;;16.47;;
20896;SDS011;10608;42.600;23.398;2024-02-26T11:02:41;17.17;;;16.17;;
20896;SDS011;10608;42.600;23.398;2024-02-26T11:05:09;17.40;;;16.13;;
20896;SDS011;10608;42.600;23.398;2024-02-26T11:07:37;15.73;;;14.53;;
20896;SDS011;10608;42.600;23.398;2024-02-26T11:10:03;16.87;;;15.80;;
20896;SDS011;10608;42.600;23.398;2024-02-26T11:12:31;17.63;;;16.23;;
20896;SDS011;10608;42.600;23.398;2024-02-26T11:15:00;15.87;;;14.63;;
20896;SDS011;10608;42.600;23.398;2024-02-26T11:17:27;17.60;;;16.50;;
20896;SDS011;10608;42.600;23.398;2024-02-26T11:19:56;14.03;;;12.80;;
20896;SDS011;10608;42.600;23.398;2024-02-26T11:22:27;15.57;;;14.20;;
20896;SDS011;10608;42.600;23.398;2024-02-26T11:24:54;14.67;;;13.47;;
20896;SDS011;10608;42.600;23.398;2024-02-26T11:27:33;16.03;;;14.93;;
20896;SDS011;10608;42.600;23.398;2024-02-26T11:30:02;16.50;;;14.87;;
20896;SDS011;10608;42.600;23.398;2024-02-26T11:32:30;17.90;;;16.47;;
20896;SDS011;10608;42.600;23.398;2024-02-26T11:34:56;20.70;;;19.13;;
20896;SDS011;10608;42.600;23.398;2024-02-26T11:37:23;16.47;;;15.20;;
20896;SDS011;10608;42.600;23.398;2024-02-26T11:39:50;17.20;;;15.77;;
20896;SDS011;10608;42.600;23.398;2024-02-26T11:42:16;17.30;;;16.20;;
20896;SDS011;10608;42.600;23.398;2024-02-26T11:44:43;17.13;;;16.03;;
20896;SDS011;10608;42.600;23.398;2024-02-26T11:47:12;15.93;;;14.83;;
20896;SDS011;10608;42.600;23.398;2024-02-26T11:49:38;15.80;;;14.80;;
20896;SDS011;10608;42.600;23.398;2024-02-26T11:52:08;16.83;;;15.70;;
20896;SDS011;10608;42.600;23.398;2024-02-26T11:57:24;18.90;;;17.67;;
20896;SDS011;10608;42.600;23.398;2024-02-26T12:00:12;16.50;;;15.50;;
20896;SDS011;10608;42.600;23.398;2024-02-26T12:05:23;16.10;;;14.90;;
20896;SDS011;10608;42.600;23.398;2024-02-26T12:07:55;14.73;;;13.47;;
20896;SDS011;10608;42.600;23.398;2024-02-26T12:10:37;15.40;;;14.37;;
20896;SDS011;10608;42.600;23.398;2024-02-26T12:13:14;13.67;;;12.67;;
20896;SDS011;10608;42.600;23.398;2024-02-26T12:15:56;12.77;;;11.83;;
20896;SDS011;10608;42.600;23.398;2024-02-26T12:18:22;13.23;;;12.23;;
20896;SDS011;10608;42.600;23.398;2024-02-26T12:20:58;14.30;;;13.00;;
20896;SDS011;10608;42.600;23.398;2024-02-26T12:23:27;15.50;;;14.40;;
20896;SDS011;10608;42.600;23.398;2024-02-26T12:25:53;14.57;;;13.57;;
20896;SDS011;10608;42.600;23.398;2024-02-26T12:28:19;17.00;;;15.70;;
20896;SDS011;10608;42.600;23.398;2024-02-26T12:30:44;15.53;;;14.53;;
20896;SDS011;10608;42.600;23.398;2024-02-26T12:33:11;16.10;;;14.90;;
20896;SDS011;10608;42.600;23.398;2024-02-26T12:35:36;12.90;;;12.07;;
20896;SDS011;10608;42.600;23.398;2024-02-26T12:38:02;11.93;;;11.23;;
20896;SDS011;10608;42.600;23.398;2024-02-26T12:40:29;13.83;;;12.93;;
20896;SDS011;10608;42.600;23.398;2024-02-26T12:42:55;14.73;;;13.70;;
20896;SDS011;10608;42.600;23.398;2024-02-26T12:45:20;15.17;;;14.23;;
20896;SDS011;10608;42.600;23.398;2024-02-26T12:47:46;16.87;;;15.47;;
20896;SDS011;10608;42.600;23.398;2024-02-26T12:50:12;14.77;;;13.87;;
20896;SDS011;10608;42.600;23.398;2024-02-26T12:52:45;15.17;;;14.00;;
20896;SDS011;10608;42.600;23.398;2024-02-26T12:55:14;12.67;;;11.97;;
20896;SDS011;10608;42.600;23.398;2024-02-26T12:57:42;14.67;;;13.17;;
20896;SDS011;10608;42.600;23.398;2024-02-26T13:00:11;16.03;;;14.63;;
20896;SDS011;10608;42.600;23.398;2024-02-26T13:02:39;12.63;;;11.43;;
20896;SDS011;10608;42.600;23.398;2024-02-26T13:05:08;12.43;;;11.63;;
20896;SDS011;10608;42.600;23.398;2024-02-26T13:07:34;12.70;;;11.80;;
20896;SDS011;10608;42.600;23.398;2024-02-26T13:10:05;10.80;;;10.13;;
20896;SDS011;10608;42.600;23.398;2024-02-26T13:12:31;11.90;;;11.20;;
20896;SDS011;10608;42.600;23.398;2024-02-26T13:15:03;12.60;;;11.37;;
20896;SDS011;10608;42.600;23.398;2024-02-26T13:17:32;12.53;;;11.63;;
20896;SDS011;10608;42.600;23.398;2024-02-26T13:19:58;12.87;;;11.87;;
20896;SDS011;10608;42.600;23.398;2024-02-26T13:22:23;12.53;;;11.47;;
20896;SDS011;10608;42.600;23.398;2024-02-26T13:24:55;13.70;;;12.50;;
20896;SDS011;10608;42.600;23.398;2024-02-26T13:27:24;14.67;;;13.73;;
20896;SDS011;10608;42.600;23.398;2024-02-26T13:30:10;13.23;;;12.13;;
20896;SDS011;10608;42.600;23.398;2024-02-26T13:32:37;11.97;;;11.37;;
20896;SDS011;10608;42.600;23.398;2024-02-26T13:35:11;12.53;;;11.40;;
20896;SDS011;10608;42.600;23.398;2024-02-26T13:37:38;14.97;;;14.07;;
20896;SDS011;10608;42.600;23.398;2024-02-26T13:40:05;14.37;;;13.47;;
20896;SDS011;10608;42.600;23.398;2024-02-26T13:42:31;13.07;;;11.90;;
20896;SDS011;10608;42.600;23.398;2024-02-26T13:44:56;12.83;;;11.83;;
20896;SDS011;10608;42.600;23.398;2024-02-26T13:47:22;13.77;;;12.63;;
20896;SDS011;10608;42.600;23.398;2024-02-26T13:49:47;13.00;;;12.03;;
20896;SDS011;10608;42.600;23.398;2024-02-26T13:52:13;12.70;;;11.80;;
20896;SDS011;10608;42.600;23.398;2024-02-26T13:54:39;14.47;;;13.33;;
20896;SDS011;10608;42.600;23.398;2024-02-26T13:57:05;14.93;;;13.93;;
20896;SDS011;10608;42.600;23.398;2024-02-26T13:59:31;13.53;;;12.73;;
20896;SDS011;10608;42.600;23.398;2024-02-26T14:01:56;14.83;;;13.63;;
20896;SDS011;10608;42.600;23.398;2024-02-26T14:04:22;13.37;;;12.47;;
20896;SDS011;10608;42.600;23.398;2024-02-26T14:06:47;12.73;;;11.93;;
20896;SDS011;10608;42.600;23.398;2024-02-26T14:09:13;11.37;;;10.57;;